sensor_id;sensor_type;location;lat;lon;timestamp;P1;durP1;ratioP1;P2;durP2;ratioP2
61527;SDS011;47395;42.032;-8.634;2023-06-22T00:01:23;16.15;;;7.63;;
61527;SDS011;47395;42.032;-8.634;2023-06-22T00:03:24;13.07;;;8.77;;
61527;SDS011;47395;42.032;-8.634;2023-06-22T00:05:26;13.00;;;7.53;;
61527;SDS011;47395;42.032;-8.634;2023-06-22T00:07:27;17.23;;;8.38;;
61527;SDS011;47395;42.032;-8.634;2023-06-22T00:09:28;11.75;;;7.50;;
61527;SDS011;47395;42.032;-8.634;2023-06-22T00:11:29;12.40;;;8.40;;
61527;SDS011;47395;42.032;-8.634;2023-06-22T00:13:33;15.30;;;7.50;;
61527;SDS011;47395;42.032;-8.634;2023-06-22T00:15:34;19.20;;;7.47;;
61527;SDS011;47395;42.032;-8.634;2023-06-22T00:17:35;15.07;;;7.50;;
61527;SDS011;47395;42.032;-8.634;2023-06-22T00:19:36;12.95;;;7.60;;
61527;SDS011;47395;42.032;-8.634;2023-06-22T00:21:40;7.88;;;6.57;;
61527;SDS011;47395;42.032;-8.634;2023-06-22T00:23:42;10.50;;;7.18;;
61527;SDS011;47395;42.032;-8.634;2023-06-22T00:25:43;10.90;;;7.13;;
61527;SDS011;47395;42.032;-8.634;2023-06-22T00:27:44;9.85;;;7.15;;
61527;SDS011;47395;42.032;-8.634;2023-06-22T00:29:45;12.52;;;7.80;;
61527;SDS011;47395;42.032;-8.634;2023-06-22T00:31:46;10.05;;;7.55;;
61527;SDS011;47395;42.032;-8.634;2023-06-22T00:33:47;7.35;;;6.72;;
61527;SDS011;47395;42.032;-8.634;2023-06-22T00:35:48;7.65;;;6.95;;
61527;SDS011;47395;42.032;-8.634;2023-06-22T00:37:48;9.43;;;7.28;;
61527;SDS011;47395;42.032;-8.634;2023-06-22T00:39:49;12.52;;;7.32;;
61527;SDS011;47395;42.032;-8.634;2023-06-22T00:41:50;8.32;;;7.22;;
61527;SDS011;47395;42.032;-8.634;2023-06-22T00:43:51;15.35;;;9.80;;
61527;SDS011;47395;42.032;-8.634;2023-06-22T00:45:52;19.17;;;10.10;;
61527;SDS011;47395;42.032;-8.634;2023-06-22T00:47:57;16.50;;;10.40;;
61527;SDS011;47395;42.032;-8.634;2023-06-22T00:49:58;12.65;;;8.98;;
61527;SDS011;47395;42.032;-8.634;2023-06-22T00:52:00;15.85;;;8.77;;
61527;SDS011;47395;42.032;-8.634;2023-06-22T00:54:02;13.00;;;8.60;;
61527;SDS011;47395;42.032;-8.634;2023-06-22T00:56:03;14.07;;;8.43;;
61527;SDS011;47395;42.032;-8.634;2023-06-22T00:58:06;13.43;;;8.02;;
61527;SDS011;47395;42.032;-8.634;2023-06-22T01:00:10;9.40;;;8.43;;
61527;SDS011;47395;42.032;-8.634;2023-06-22T01:02:17;13.73;;;7.88;;
61527;SDS011;47395;42.032;-8.634;2023-06-22T01:04:18;10.70;;;7.85;;
61527;SDS011;47395;42.032;-8.634;2023-06-22T01:06:26;10.40;;;7.78;;
61527;SDS011;47395;42.032;-8.634;2023-06-22T01:08:42;10.52;;;8.52;;
61527;SDS011;47395;42.032;-8.634;2023-06-22T01:10:59;10.80;;;7.75;;
61527;SDS011;47395;42.032;-8.634;2023-06-22T01:13:11;10.63;;;7.82;;
61527;SDS011;47395;42.032;-8.634;2023-06-22T01:15:33;14.23;;;8.15;;
61527;SDS011;47395;42.032;-8.634;2023-06-22T01:17:46;10.98;;;7.18;;
61527;SDS011;47395;42.032;-8.634;2023-06-22T01:19:50;11.68;;;7.50;;
61527;SDS011;47395;42.032;-8.634;2023-06-22T01:21:57;14.60;;;8.23;;
61527;SDS011;47395;42.032;-8.634;2023-06-22T01:29:02;11.55;;;7.53;;
61527;SDS011;47395;42.032;-8.634;2023-06-22T01:31:04;10.63;;;7.85;;
61527;SDS011;47395;42.032;-8.634;2023-06-22T01:33:06;10.43;;;7.75;;
61527;SDS011;47395;42.032;-8.634;2023-06-22T01:35:11;17.83;;;8.52;;
61527;SDS011;47395;42.032;-8.634;2023-06-22T01:37:14;17.30;;;7.70;;
61527;SDS011;47395;42.032;-8.634;2023-06-22T01:39:15;8.48;;;7.40;;
61527;SDS011;47395;42.032;-8.634;2023-06-22T01:41:19;14.38;;;7.63;;
61527;SDS011;47395;42.032;-8.634;2023-06-22T01:43:21;9.77;;;7.65;;
61527;SDS011;47395;42.032;-8.634;2023-06-22T01:45:25;8.70;;;7.75;;
61527;SDS011;47395;42.032;-8.634;2023-06-22T01:47:27;12.70;;;8.50;;
61527;SDS011;47395;42.032;-8.634;2023-06-22T01:49:28;11.10;;;8.18;;
61527;SDS011;47395;42.032;-8.634;2023-06-22T01:51:31;9.88;;;8.52;;
61527;SDS011;47395;42.032;-8.634;2023-06-22T01:53:34;12.98;;;8.50;;
61527;SDS011;47395;42.032;-8.634;2023-06-22T01:55:34;17.73;;;8.45;;
61527;SDS011;47395;42.032;-8.634;2023-06-22T01:57:36;9.82;;;8.27;;
61527;SDS011;47395;42.032;-8.634;2023-06-22T01:59:44;13.73;;;9.25;;
61527;SDS011;47395;42.032;-8.634;2023-06-22T02:01:57;16.35;;;9.60;;
61527;SDS011;47395;42.032;-8.634;2023-06-22T02:04:03;12.82;;;8.52;;
61527;SDS011;47395;42.032;-8.634;2023-06-22T02:06:21;12.45;;;8.82;;
61527;SDS011;47395;42.032;-8.634;2023-06-22T02:08:28;17.90;;;9.65;;
61527;SDS011;47395;42.032;-8.634;2023-06-22T02:10:34;11.25;;;8.82;;
61527;SDS011;47395;42.032;-8.634;2023-06-22T02:12:35;11.95;;;8.75;;
61527;SDS011;47395;42.032;-8.634;2023-06-22T02:14:37;17.40;;;8.93;;
61527;SDS011;47395;42.032;-8.634;2023-06-22T02:16:38;10.43;;;9.25;;
61527;SDS011;47395;42.032;-8.634;2023-06-22T02:18:47;13.15;;;9.27;;
61527;SDS011;47395;42.032;-8.634;2023-06-22T02:20:51;12.68;;;8.75;;
61527;SDS011;47395;42.032;-8.634;2023-06-22T02:22:52;12.65;;;8.90;;
61527;SDS011;47395;42.032;-8.634;2023-06-22T02:24:53;14.75;;;8.80;;
61527;SDS011;47395;42.032;-8.634;2023-06-22T02:26:54;13.85;;;9.45;;
61527;SDS011;47395;42.032;-8.634;2023-06-22T02:28:55;12.40;;;8.52;;
61527;SDS011;47395;42.032;-8.634;2023-06-22T02:30:56;11.45;;;9.23;;
61527;SDS011;47395;42.032;-8.634;2023-06-22T02:32:57;14.35;;;8.38;;
61527;SDS011;47395;42.032;-8.634;2023-06-22T02:35:01;11.82;;;8.75;;
61527;SDS011;47395;42.032;-8.634;2023-06-22T02:37:04;11.20;;;9.02;;
61527;SDS011;47395;42.032;-8.634;2023-06-22T02:39:06;14.48;;;8.48;;
61527;SDS011;47395;42.032;-8.634;2023-06-22T02:41:07;10.10;;;8.52;;
61527;SDS011;47395;42.032;-8.634;2023-06-22T02:43:08;15.23;;;9.05;;
61527;SDS011;47395;42.032;-8.634;2023-06-22T02:45:09;8.85;;;7.95;;
61527;SDS011;47395;42.032;-8.634;2023-06-22T02:47:10;13.68;;;8.05;;
61527;SDS011;47395;42.032;-8.634;2023-06-22T02:49:11;15.10;;;9.18;;
61527;SDS011;47395;42.032;-8.634;2023-06-22T02:51:13;11.77;;;9.13;;
61527;SDS011;47395;42.032;-8.634;2023-06-22T02:53:16;18.35;;;8.60;;
61527;SDS011;47395;42.032;-8.634;2023-06-22T02:55:20;14.30;;;9.45;;
61527;SDS011;47395;42.032;-8.634;2023-06-22T02:57:28;12.52;;;9.57;;
61527;SDS011;47395;42.032;-8.634;2023-06-22T02:59:30;12.73;;;10.32;;
61527;SDS011;47395;42.032;-8.634;2023-06-22T03:01:37;19.60;;;11.05;;
61527;SDS011;47395;42.032;-8.634;2023-06-22T03:03:45;10.55;;;9.45;;
61527;SDS011;47395;42.032;-8.634;2023-06-22T03:05:46;12.73;;;9.57;;
61527;SDS011;47395;42.032;-8.634;2023-06-22T03:07:47;14.00;;;9.73;;
61527;SDS011;47395;42.032;-8.634;2023-06-22T03:09:48;11.30;;;8.93;;
61527;SDS011;47395;42.032;-8.634;2023-06-22T03:11:49;10.68;;;9.40;;
61527;SDS011;47395;42.032;-8.634;2023-06-22T03:13:51;13.07;;;9.65;;
61527;SDS011;47395;42.032;-8.634;2023-06-22T03:15:53;108.63;;;10.30;;
61527;SDS011;47395;42.032;-8.634;2023-06-22T03:17:54;12.40;;;8.85;;
61527;SDS011;47395;42.032;-8.634;2023-06-22T03:19:57;9.90;;;9.00;;
61527;SDS011;47395;42.032;-8.634;2023-06-22T03:21:59;9.45;;;8.63;;
61527;SDS011;47395;42.032;-8.634;2023-06-22T03:24:00;9.13;;;8.43;;
61527;SDS011;47395;42.032;-8.634;2023-06-22T03:26:02;11.68;;;8.05;;
61527;SDS011;47395;42.032;-8.634;2023-06-22T03:28:04;8.45;;;7.68;;
61527;SDS011;47395;42.032;-8.634;2023-06-22T03:30:06;9.98;;;7.47;;
61527;SDS011;47395;42.032;-8.634;2023-06-22T03:32:08;8.20;;;7.40;;
61527;SDS011;47395;42.032;-8.634;2023-06-22T03:34:09;7.93;;;7.30;;
61527;SDS011;47395;42.032;-8.634;2023-06-22T03:36:10;7.68;;;7.15;;
61527;SDS011;47395;42.032;-8.634;2023-06-22T03:38:11;9.57;;;7.85;;
61527;SDS011;47395;42.032;-8.634;2023-06-22T03:40:13;7.47;;;6.88;;
61527;SDS011;47395;42.032;-8.634;2023-06-22T03:42:14;8.35;;;7.45;;
61527;SDS011;47395;42.032;-8.634;2023-06-22T03:44:15;7.90;;;7.30;;
61527;SDS011;47395;42.032;-8.634;2023-06-22T03:46:17;9.38;;;8.10;;
61527;SDS011;47395;42.032;-8.634;2023-06-22T03:48:18;8.98;;;8.07;;
61527;SDS011;47395;42.032;-8.634;2023-06-22T03:50:19;9.73;;;7.85;;
61527;SDS011;47395;42.032;-8.634;2023-06-22T03:52:23;8.70;;;7.75;;
61527;SDS011;47395;42.032;-8.634;2023-06-22T03:54:25;12.52;;;8.38;;
61527;SDS011;47395;42.032;-8.634;2023-06-22T03:56:26;9.02;;;7.68;;
61527;SDS011;47395;42.032;-8.634;2023-06-22T03:58:27;8.73;;;7.90;;
61527;SDS011;47395;42.032;-8.634;2023-06-22T04:00:32;10.05;;;9.02;;
61527;SDS011;47395;42.032;-8.634;2023-06-22T04:04:51;14.35;;;9.70;;
61527;SDS011;47395;42.032;-8.634;2023-06-22T04:06:52;15.25;;;9.68;;
61527;SDS011;47395;42.032;-8.634;2023-06-22T04:08:53;13.80;;;9.65;;
61527;SDS011;47395;42.032;-8.634;2023-06-22T04:10:54;17.65;;;10.32;;
61527;SDS011;47395;42.032;-8.634;2023-06-22T04:12:55;16.48;;;9.45;;
61527;SDS011;47395;42.032;-8.634;2023-06-22T04:14:56;13.23;;;9.50;;
61527;SDS011;47395;42.032;-8.634;2023-06-22T04:16:58;16.27;;;9.88;;
61527;SDS011;47395;42.032;-8.634;2023-06-22T04:18:59;17.13;;;10.27;;
61527;SDS011;47395;42.032;-8.634;2023-06-22T04:21:00;14.25;;;10.05;;
61527;SDS011;47395;42.032;-8.634;2023-06-22T04:23:02;16.13;;;9.82;;
61527;SDS011;47395;42.032;-8.634;2023-06-22T04:25:03;13.60;;;9.65;;
61527;SDS011;47395;42.032;-8.634;2023-06-22T04:27:04;10.05;;;8.57;;
61527;SDS011;47395;42.032;-8.634;2023-06-22T04:29:05;10.13;;;9.13;;
61527;SDS011;47395;42.032;-8.634;2023-06-22T04:31:06;10.45;;;9.45;;
61527;SDS011;47395;42.032;-8.634;2023-06-22T04:33:07;10.48;;;9.07;;
61527;SDS011;47395;42.032;-8.634;2023-06-22T04:35:09;8.82;;;8.07;;
61527;SDS011;47395;42.032;-8.634;2023-06-22T04:37:11;27.75;;;7.20;;
61527;SDS011;47395;42.032;-8.634;2023-06-22T04:39:15;8.90;;;8.10;;
61527;SDS011;47395;42.032;-8.634;2023-06-22T04:41:16;8.68;;;7.97;;
61527;SDS011;47395;42.032;-8.634;2023-06-22T04:43:23;53.35;;;10.13;;
61527;SDS011;47395;42.032;-8.634;2023-06-22T04:45:24;9.63;;;8.65;;
61527;SDS011;47395;42.032;-8.634;2023-06-22T04:47:25;9.43;;;8.07;;
61527;SDS011;47395;42.032;-8.634;2023-06-22T04:49:27;10.85;;;8.80;;
61527;SDS011;47395;42.032;-8.634;2023-06-22T04:51:39;8.63;;;7.93;;
61527;SDS011;47395;42.032;-8.634;2023-06-22T04:53:41;12.60;;;8.68;;
61527;SDS011;47395;42.032;-8.634;2023-06-22T04:55:43;29.05;;;8.68;;
61527;SDS011;47395;42.032;-8.634;2023-06-22T04:57:47;12.88;;;7.75;;
61527;SDS011;47395;42.032;-8.634;2023-06-22T04:59:49;29.67;;;8.30;;
61527;SDS011;47395;42.032;-8.634;2023-06-22T05:01:50;8.73;;;8.02;;
61527;SDS011;47395;42.032;-8.634;2023-06-22T05:03:51;18.00;;;8.50;;
61527;SDS011;47395;42.032;-8.634;2023-06-22T05:05:56;11.10;;;7.10;;
61527;SDS011;47395;42.032;-8.634;2023-06-22T05:07:57;9.27;;;8.38;;
61527;SDS011;47395;42.032;-8.634;2023-06-22T05:10:02;8.25;;;7.55;;
61527;SDS011;47395;42.032;-8.634;2023-06-22T05:12:04;9.07;;;8.10;;
61527;SDS011;47395;42.032;-8.634;2023-06-22T05:14:05;8.80;;;8.00;;
61527;SDS011;47395;42.032;-8.634;2023-06-22T05:16:07;7.97;;;7.20;;
61527;SDS011;47395;42.032;-8.634;2023-06-22T05:18:08;9.30;;;7.30;;
61527;SDS011;47395;42.032;-8.634;2023-06-22T05:20:09;7.32;;;6.82;;
61527;SDS011;47395;42.032;-8.634;2023-06-22T05:22:11;7.75;;;7.15;;
61527;SDS011;47395;42.032;-8.634;2023-06-22T05:24:13;8.10;;;7.50;;
61527;SDS011;47395;42.032;-8.634;2023-06-22T05:26:14;8.25;;;7.47;;
61527;SDS011;47395;42.032;-8.634;2023-06-22T05:28:15;8.57;;;7.88;;
61527;SDS011;47395;42.032;-8.634;2023-06-22T05:30:16;11.00;;;8.52;;
61527;SDS011;47395;42.032;-8.634;2023-06-22T05:32:18;10.07;;;9.13;;
61527;SDS011;47395;42.032;-8.634;2023-06-22T05:34:20;9.43;;;8.60;;
61527;SDS011;47395;42.032;-8.634;2023-06-22T05:36:20;9.63;;;8.65;;
61527;SDS011;47395;42.032;-8.634;2023-06-22T05:38:25;9.05;;;8.30;;
61527;SDS011;47395;42.032;-8.634;2023-06-22T05:40:26;9.80;;;8.88;;
61527;SDS011;47395;42.032;-8.634;2023-06-22T05:42:27;12.82;;;8.52;;
61527;SDS011;47395;42.032;-8.634;2023-06-22T05:44:28;9.75;;;8.70;;
61527;SDS011;47395;42.032;-8.634;2023-06-22T05:46:29;19.50;;;8.35;;
61527;SDS011;47395;42.032;-8.634;2023-06-22T05:48:30;22.77;;;9.00;;
61527;SDS011;47395;42.032;-8.634;2023-06-22T05:50:34;10.70;;;9.07;;
61527;SDS011;47395;42.032;-8.634;2023-06-22T05:52:36;12.02;;;8.90;;
61527;SDS011;47395;42.032;-8.634;2023-06-22T05:54:36;9.10;;;8.27;;
61527;SDS011;47395;42.032;-8.634;2023-06-22T05:56:39;8.60;;;7.90;;
61527;SDS011;47395;42.032;-8.634;2023-06-22T05:58:40;11.15;;;8.30;;
61527;SDS011;47395;42.032;-8.634;2023-06-22T06:00:41;17.33;;;8.05;;
61527;SDS011;47395;42.032;-8.634;2023-06-22T06:02:43;9.68;;;8.77;;
61527;SDS011;47395;42.032;-8.634;2023-06-22T06:04:44;8.63;;;7.85;;
61527;SDS011;47395;42.032;-8.634;2023-06-22T06:06:45;15.23;;;8.07;;
61527;SDS011;47395;42.032;-8.634;2023-06-22T06:08:47;10.57;;;8.60;;
61527;SDS011;47395;42.032;-8.634;2023-06-22T06:10:48;9.52;;;8.40;;
61527;SDS011;47395;42.032;-8.634;2023-06-22T06:12:49;8.60;;;7.80;;
61527;SDS011;47395;42.032;-8.634;2023-06-22T06:14:50;8.38;;;7.68;;
61527;SDS011;47395;42.032;-8.634;2023-06-22T06:16:51;7.57;;;6.97;;
61527;SDS011;47395;42.032;-8.634;2023-06-22T06:18:52;9.05;;;7.82;;
61527;SDS011;47395;42.032;-8.634;2023-06-22T06:20:55;8.90;;;7.88;;
61527;SDS011;47395;42.032;-8.634;2023-06-22T06:22:55;7.70;;;7.13;;
61527;SDS011;47395;42.032;-8.634;2023-06-22T06:24:56;7.63;;;7.13;;
61527;SDS011;47395;42.032;-8.634;2023-06-22T06:26:57;7.43;;;6.72;;
61527;SDS011;47395;42.032;-8.634;2023-06-22T06:28:59;8.23;;;7.53;;
61527;SDS011;47395;42.032;-8.634;2023-06-22T06:31:00;8.93;;;7.07;;
61527;SDS011;47395;42.032;-8.634;2023-06-22T06:33:01;9.18;;;7.40;;
61527;SDS011;47395;42.032;-8.634;2023-06-22T06:35:03;7.45;;;6.95;;
61527;SDS011;47395;42.032;-8.634;2023-06-22T06:37:05;9.90;;;7.22;;
61527;SDS011;47395;42.032;-8.634;2023-06-22T06:39:06;8.02;;;7.35;;
61527;SDS011;47395;42.032;-8.634;2023-06-22T06:41:06;9.90;;;8.18;;
61527;SDS011;47395;42.032;-8.634;2023-06-22T06:43:07;9.27;;;8.38;;
61527;SDS011;47395;42.032;-8.634;2023-06-22T06:45:08;7.88;;;7.22;;
61527;SDS011;47395;42.032;-8.634;2023-06-22T06:47:10;7.85;;;6.90;;
61527;SDS011;47395;42.032;-8.634;2023-06-22T06:49:11;8.23;;;7.53;;
61527;SDS011;47395;42.032;-8.634;2023-06-22T06:51:12;7.82;;;7.22;;
61527;SDS011;47395;42.032;-8.634;2023-06-22T06:53:12;8.02;;;7.32;;
61527;SDS011;47395;42.032;-8.634;2023-06-22T06:55:13;6.18;;;5.65;;
61527;SDS011;47395;42.032;-8.634;2023-06-22T06:57:14;8.00;;;5.97;;
61527;SDS011;47395;42.032;-8.634;2023-06-22T06:59:15;6.68;;;6.07;;
61527;SDS011;47395;42.032;-8.634;2023-06-22T07:01:16;7.60;;;5.90;;
61527;SDS011;47395;42.032;-8.634;2023-06-22T07:03:17;7.10;;;6.32;;
61527;SDS011;47395;42.032;-8.634;2023-06-22T07:05:18;7.57;;;5.93;;
61527;SDS011;47395;42.032;-8.634;2023-06-22T07:07:19;4.93;;;4.55;;
61527;SDS011;47395;42.032;-8.634;2023-06-22T07:09:20;4.68;;;4.28;;
61527;SDS011;47395;42.032;-8.634;2023-06-22T07:11:21;6.30;;;5.70;;
61527;SDS011;47395;42.032;-8.634;2023-06-22T07:13:22;7.53;;;5.30;;
61527;SDS011;47395;42.032;-8.634;2023-06-22T07:15:22;4.53;;;4.22;;
61527;SDS011;47395;42.032;-8.634;2023-06-22T07:17:23;6.10;;;5.50;;
61527;SDS011;47395;42.032;-8.634;2023-06-22T07:19:24;6.90;;;5.07;;
61527;SDS011;47395;42.032;-8.634;2023-06-22T07:21:27;5.97;;;5.47;;
61527;SDS011;47395;42.032;-8.634;2023-06-22T07:23:27;5.85;;;5.38;;
61527;SDS011;47395;42.032;-8.634;2023-06-22T07:25:28;6.10;;;5.70;;
61527;SDS011;47395;42.032;-8.634;2023-06-22T07:27:29;5.68;;;5.18;;
61527;SDS011;47395;42.032;-8.634;2023-06-22T07:29:35;5.65;;;5.32;;
61527;SDS011;47395;42.032;-8.634;2023-06-22T07:31:36;8.27;;;6.13;;
61527;SDS011;47395;42.032;-8.634;2023-06-22T07:33:37;6.20;;;5.70;;
61527;SDS011;47395;42.032;-8.634;2023-06-22T07:35:38;9.00;;;6.60;;
61527;SDS011;47395;42.032;-8.634;2023-06-22T07:37:39;7.78;;;7.13;;
61527;SDS011;47395;42.032;-8.634;2023-06-22T07:39:40;9.65;;;7.13;;
61527;SDS011;47395;42.032;-8.634;2023-06-22T07:41:42;7.70;;;6.97;;
61527;SDS011;47395;42.032;-8.634;2023-06-22T07:43:43;6.80;;;6.20;;
61527;SDS011;47395;42.032;-8.634;2023-06-22T07:45:50;6.78;;;6.13;;
61527;SDS011;47395;42.032;-8.634;2023-06-22T07:47:54;7.32;;;6.72;;
61527;SDS011;47395;42.032;-8.634;2023-06-22T07:49:55;7.68;;;6.80;;
61527;SDS011;47395;42.032;-8.634;2023-06-22T07:51:59;8.45;;;7.65;;
61527;SDS011;47395;42.032;-8.634;2023-06-22T07:54:01;6.47;;;5.97;;
61527;SDS011;47395;42.032;-8.634;2023-06-22T07:56:03;7.65;;;7.03;;
61527;SDS011;47395;42.032;-8.634;2023-06-22T07:58:07;5.72;;;5.07;;
61527;SDS011;47395;42.032;-8.634;2023-06-22T08:00:08;8.07;;;5.28;;
61527;SDS011;47395;42.032;-8.634;2023-06-22T08:02:17;5.95;;;5.57;;
61527;SDS011;47395;42.032;-8.634;2023-06-22T08:04:17;7.28;;;5.00;;
61527;SDS011;47395;42.032;-8.634;2023-06-22T08:06:18;5.95;;;5.47;;
61527;SDS011;47395;42.032;-8.634;2023-06-22T08:08:19;6.05;;;5.28;;
61527;SDS011;47395;42.032;-8.634;2023-06-22T08:10:20;9.18;;;5.25;;
61527;SDS011;47395;42.032;-8.634;2023-06-22T08:12:21;5.82;;;5.43;;
61527;SDS011;47395;42.032;-8.634;2023-06-22T08:14:24;6.22;;;5.60;;
61527;SDS011;47395;42.032;-8.634;2023-06-22T08:16:26;5.38;;;4.85;;
61527;SDS011;47395;42.032;-8.634;2023-06-22T08:18:27;7.28;;;5.57;;
61527;SDS011;47395;42.032;-8.634;2023-06-22T08:20:28;5.20;;;4.80;;
61527;SDS011;47395;42.032;-8.634;2023-06-22T08:22:29;5.28;;;4.72;;
61527;SDS011;47395;42.032;-8.634;2023-06-22T08:24:30;6.28;;;5.43;;
61527;SDS011;47395;42.032;-8.634;2023-06-22T08:26:31;6.13;;;5.18;;
61527;SDS011;47395;42.032;-8.634;2023-06-22T08:28:36;5.97;;;4.80;;
61527;SDS011;47395;42.032;-8.634;2023-06-22T08:30:39;5.60;;;5.05;;
61527;SDS011;47395;42.032;-8.634;2023-06-22T08:32:41;10.27;;;5.07;;
61527;SDS011;47395;42.032;-8.634;2023-06-22T08:34:42;6.20;;;5.10;;
61527;SDS011;47395;42.032;-8.634;2023-06-22T08:36:43;5.80;;;4.72;;
61527;SDS011;47395;42.032;-8.634;2023-06-22T08:38:47;4.80;;;4.50;;
61527;SDS011;47395;42.032;-8.634;2023-06-22T08:40:51;6.15;;;5.55;;
61527;SDS011;47395;42.032;-8.634;2023-06-22T08:42:52;5.07;;;4.72;;
61527;SDS011;47395;42.032;-8.634;2023-06-22T08:44:53;5.20;;;4.80;;
61527;SDS011;47395;42.032;-8.634;2023-06-22T08:46:54;4.30;;;4.00;;
61527;SDS011;47395;42.032;-8.634;2023-06-22T08:48:55;5.00;;;4.50;;
61527;SDS011;47395;42.032;-8.634;2023-06-22T08:50:58;6.65;;;4.95;;
61527;SDS011;47395;42.032;-8.634;2023-06-22T08:52:58;5.10;;;4.70;;
61527;SDS011;47395;42.032;-8.634;2023-06-22T08:54:59;4.60;;;4.30;;
61527;SDS011;47395;42.032;-8.634;2023-06-22T08:57:01;3.97;;;3.72;;
61527;SDS011;47395;42.032;-8.634;2023-06-22T08:59:02;7.85;;;4.50;;
61527;SDS011;47395;42.032;-8.634;2023-06-22T09:01:03;5.03;;;4.53;;
61527;SDS011;47395;42.032;-8.634;2023-06-22T09:03:04;8.13;;;4.78;;
61527;SDS011;47395;42.032;-8.634;2023-06-22T09:05:05;6.35;;;4.53;;
61527;SDS011;47395;42.032;-8.634;2023-06-22T09:07:06;5.88;;;4.70;;
61527;SDS011;47395;42.032;-8.634;2023-06-22T09:09:07;5.63;;;5.10;;
61527;SDS011;47395;42.032;-8.634;2023-06-22T09:11:08;5.10;;;4.70;;
61527;SDS011;47395;42.032;-8.634;2023-06-22T09:13:09;5.75;;;4.88;;
61527;SDS011;47395;42.032;-8.634;2023-06-22T09:15:10;7.40;;;4.07;;
61527;SDS011;47395;42.032;-8.634;2023-06-22T09:17:12;4.90;;;4.53;;
61527;SDS011;47395;42.032;-8.634;2023-06-22T09:19:13;7.13;;;4.63;;
61527;SDS011;47395;42.032;-8.634;2023-06-22T09:21:14;4.65;;;4.25;;
61527;SDS011;47395;42.032;-8.634;2023-06-22T09:23:15;5.15;;;3.97;;
61527;SDS011;47395;42.032;-8.634;2023-06-22T09:25:16;4.25;;;3.90;;
61527;SDS011;47395;42.032;-8.634;2023-06-22T09:27:17;7.05;;;3.97;;
61527;SDS011;47395;42.032;-8.634;2023-06-22T09:29:17;4.45;;;4.13;;
61527;SDS011;47395;42.032;-8.634;2023-06-22T09:31:18;3.83;;;3.50;;
61527;SDS011;47395;42.032;-8.634;2023-06-22T09:33:25;4.00;;;3.67;;
61527;SDS011;47395;42.032;-8.634;2023-06-22T09:35:28;3.72;;;3.53;;
61527;SDS011;47395;42.032;-8.634;2023-06-22T09:37:31;3.75;;;3.55;;
61527;SDS011;47395;42.032;-8.634;2023-06-22T09:39:33;9.43;;;3.95;;
61527;SDS011;47395;42.032;-8.634;2023-06-22T09:41:34;4.15;;;3.85;;
61527;SDS011;47395;42.032;-8.634;2023-06-22T09:43:35;4.38;;;3.95;;
61527;SDS011;47395;42.032;-8.634;2023-06-22T09:45:36;5.05;;;3.22;;
61527;SDS011;47395;42.032;-8.634;2023-06-22T09:47:37;3.10;;;2.90;;
61527;SDS011;47395;42.032;-8.634;2023-06-22T09:49:38;6.13;;;3.08;;
61527;SDS011;47395;42.032;-8.634;2023-06-22T09:51:39;2.78;;;2.63;;
61527;SDS011;47395;42.032;-8.634;2023-06-22T09:53:41;2.58;;;2.47;;
61527;SDS011;47395;42.032;-8.634;2023-06-22T09:55:47;2.38;;;2.22;;
61527;SDS011;47395;42.032;-8.634;2023-06-22T09:57:48;2.78;;;2.63;;
61527;SDS011;47395;42.032;-8.634;2023-06-22T09:59:49;2.22;;;2.13;;
61527;SDS011;47395;42.032;-8.634;2023-06-22T10:01:50;3.00;;;2.17;;
61527;SDS011;47395;42.032;-8.634;2023-06-22T10:03:54;2.17;;;2.08;;
61527;SDS011;47395;42.032;-8.634;2023-06-22T10:05:56;2.00;;;1.90;;
61527;SDS011;47395;42.032;-8.634;2023-06-22T10:07:57;2.30;;;2.08;;
61527;SDS011;47395;42.032;-8.634;2023-06-22T10:09:58;2.92;;;2.30;;
61527;SDS011;47395;42.032;-8.634;2023-06-22T10:11:59;2.50;;;2.40;;
61527;SDS011;47395;42.032;-8.634;2023-06-22T10:14:00;2.40;;;2.20;;
61527;SDS011;47395;42.032;-8.634;2023-06-22T10:16:01;2.40;;;2.25;;
61527;SDS011;47395;42.032;-8.634;2023-06-22T10:18:04;2.20;;;2.10;;
61527;SDS011;47395;42.032;-8.634;2023-06-22T10:20:05;2.55;;;2.28;;
61527;SDS011;47395;42.032;-8.634;2023-06-22T10:22:13;2.53;;;2.38;;
61527;SDS011;47395;42.032;-8.634;2023-06-22T10:24:14;2.92;;;2.35;;
61527;SDS011;47395;42.032;-8.634;2023-06-22T10:26:14;2.50;;;2.40;;
61527;SDS011;47395;42.032;-8.634;2023-06-22T10:28:15;2.55;;;2.35;;
61527;SDS011;47395;42.032;-8.634;2023-06-22T10:30:16;2.20;;;2.05;;
61527;SDS011;47395;42.032;-8.634;2023-06-22T10:32:17;2.55;;;2.45;;
61527;SDS011;47395;42.032;-8.634;2023-06-22T10:34:18;2.95;;;2.50;;
61527;SDS011;47395;42.032;-8.634;2023-06-22T10:36:20;2.20;;;2.10;;
61527;SDS011;47395;42.032;-8.634;2023-06-22T10:38:22;2.65;;;2.35;;
61527;SDS011;47395;42.032;-8.634;2023-06-22T10:40:23;2.40;;;2.20;;
61527;SDS011;47395;42.032;-8.634;2023-06-22T10:42:23;2.30;;;2.20;;
61527;SDS011;47395;42.032;-8.634;2023-06-22T10:44:24;2.63;;;2.42;;
61527;SDS011;47395;42.032;-8.634;2023-06-22T10:46:25;2.40;;;2.30;;
61527;SDS011;47395;42.032;-8.634;2023-06-22T10:48:26;2.70;;;2.50;;
61527;SDS011;47395;42.032;-8.634;2023-06-22T10:50:27;2.65;;;2.45;;
61527;SDS011;47395;42.032;-8.634;2023-06-22T10:52:28;2.55;;;2.35;;
61527;SDS011;47395;42.032;-8.634;2023-06-22T10:54:29;2.60;;;2.40;;
61527;SDS011;47395;42.032;-8.634;2023-06-22T10:56:29;2.80;;;2.28;;
61527;SDS011;47395;42.032;-8.634;2023-06-22T10:58:30;2.92;;;2.60;;
61527;SDS011;47395;42.032;-8.634;2023-06-22T11:00:31;2.47;;;2.28;;
61527;SDS011;47395;42.032;-8.634;2023-06-22T11:02:32;3.60;;;2.40;;
61527;SDS011;47395;42.032;-8.634;2023-06-22T11:04:32;2.67;;;2.20;;
61527;SDS011;47395;42.032;-8.634;2023-06-22T11:06:34;3.42;;;2.47;;
61527;SDS011;47395;42.032;-8.634;2023-06-22T11:08:35;2.80;;;2.20;;
61527;SDS011;47395;42.032;-8.634;2023-06-22T11:10:36;2.38;;;2.10;;
61527;SDS011;47395;42.032;-8.634;2023-06-22T11:12:37;2.40;;;2.30;;
61527;SDS011;47395;42.032;-8.634;2023-06-22T11:14:39;2.10;;;2.05;;
61527;SDS011;47395;42.032;-8.634;2023-06-22T11:16:39;2.20;;;2.10;;
61527;SDS011;47395;42.032;-8.634;2023-06-22T11:18:40;2.80;;;2.60;;
61527;SDS011;47395;42.032;-8.634;2023-06-22T11:20:41;2.50;;;2.40;;
61527;SDS011;47395;42.032;-8.634;2023-06-22T11:22:42;2.35;;;2.20;;
61527;SDS011;47395;42.032;-8.634;2023-06-22T11:24:43;4.10;;;2.50;;
61527;SDS011;47395;42.032;-8.634;2023-06-22T11:26:44;3.65;;;2.25;;
61527;SDS011;47395;42.032;-8.634;2023-06-22T11:28:45;2.17;;;2.05;;
61527;SDS011;47395;42.032;-8.634;2023-06-22T11:30:47;2.58;;;2.25;;
61527;SDS011;47395;42.032;-8.634;2023-06-22T11:32:47;2.72;;;2.60;;
61527;SDS011;47395;42.032;-8.634;2023-06-22T11:34:48;3.00;;;1.95;;
61527;SDS011;47395;42.032;-8.634;2023-06-22T11:36:49;2.40;;;2.30;;
61527;SDS011;47395;42.032;-8.634;2023-06-22T11:38:50;2.58;;;2.38;;
61527;SDS011;47395;42.032;-8.634;2023-06-22T11:40:51;3.00;;;2.80;;
61527;SDS011;47395;42.032;-8.634;2023-06-22T11:42:52;2.70;;;2.60;;
61527;SDS011;47395;42.032;-8.634;2023-06-22T11:44:56;2.65;;;2.55;;
61527;SDS011;47395;42.032;-8.634;2023-06-22T11:46:57;3.25;;;3.10;;
61527;SDS011;47395;42.032;-8.634;2023-06-22T11:49:01;2.40;;;2.30;;
61527;SDS011;47395;42.032;-8.634;2023-06-22T11:51:02;3.30;;;2.50;;
61527;SDS011;47395;42.032;-8.634;2023-06-22T11:53:03;4.70;;;2.45;;
61527;SDS011;47395;42.032;-8.634;2023-06-22T11:55:04;2.75;;;2.55;;
61527;SDS011;47395;42.032;-8.634;2023-06-22T11:57:06;3.15;;;2.40;;
61527;SDS011;47395;42.032;-8.634;2023-06-22T11:59:09;2.88;;;2.70;;
61527;SDS011;47395;42.032;-8.634;2023-06-22T12:01:10;4.18;;;2.65;;
61527;SDS011;47395;42.032;-8.634;2023-06-22T12:03:13;2.85;;;2.65;;
61527;SDS011;47395;42.032;-8.634;2023-06-22T12:05:15;2.85;;;2.60;;
61527;SDS011;47395;42.032;-8.634;2023-06-22T12:07:16;2.63;;;2.42;;
61527;SDS011;47395;42.032;-8.634;2023-06-22T12:09:16;2.67;;;2.40;;